Portada
METAR-TAF:

METAR-TAF

Aeroports :

Kilimanjaro, Tanzània

latitud: 03-25S, longitud: 037-04E, altitud: 891 m

Observació

L'informe es va fer fa 36 minuts, a les 01:00 UTC
Vent 5 kt del Est/Sud-Est
Temperatura 20°C
Humitat 68%
Pressió 1014 hPa
Visibilitat 10 km o més
Escasses núvols a una alçada de 2500 ft

METAR: HTKJ 300100Z 12005KT 9999 FEW025 20/14 Q1014 NOSIG

Hora: 04:36 (01:36 UTC)

Pronòstic

L'informe es va fer fa 2 hores i 36 minuts, a les 23:00 UTC
Pronòstic vàlid del 30 a les 00 UTC al 30 a les 24 UTC
Vent 10 kt del Est
Visibilitat 10 km o més
Núvols disperses a una alçada de 2300 ft

TAF: HTKJ 292300Z 3000/3024 09010KT 9999 SCT023

Observacions i pronòstics meteorològics de més de 4000 aeroports (METAR i TAF).

Les estacions disponibles són els punts grocs i vermells al mapa.

Posi el ratolí al punt desitjat per veure el nom de l'estació.

Feu clic per veure les observacions i els pronòstics meteorològics.

Per canviar el mapa: feu clic els botons verds amb una creu de color negre per apropar; al botó verd amb un guió per allunyar la imatge; o en les fletxes verdes per a mapes adjacents.


METAR-TAF: